createdAt,value
2019-03-10T00:00:30.164Z,56.38
2019-03-10T00:02:58.831Z,56.15
2019-03-10T00:05:27.355Z,56.74
2019-03-10T00:07:56.122Z,57.41
2019-03-10T00:10:24.760Z,57.88
2019-03-10T00:12:53.410Z,58.01
2019-03-10T00:15:22.072Z,58.49
2019-03-10T00:17:50.805Z,58.54
2019-03-10T00:20:19.435Z,58.74
2019-03-10T00:22:48.109Z,59.12
2019-03-10T00:25:16.855Z,59.18
2019-03-10T00:27:45.487Z,59.00
2019-03-10T00:30:16.057Z,58.67
2019-03-10T00:32:44.686Z,58.34
2019-03-10T00:35:13.538Z,58.08
2019-03-10T00:37:42.194Z,58.11
2019-03-10T00:40:45.752Z,57.76
2019-03-10T00:43:42.664Z,57.94
2019-03-10T00:46:40.138Z,57.79
2019-03-10T00:49:43.330Z,57.80
2019-03-10T00:52:17.904Z,58.40
2019-03-10T00:54:46.524Z,58.84
2019-03-10T00:57:15.154Z,58.70
2019-03-10T00:59:43.787Z,58.46
2019-03-10T01:02:12.386Z,58.41
2019-03-10T01:04:41.034Z,58.55
2019-03-10T01:07:09.654Z,58.79
2019-03-10T01:09:38.328Z,59.12
2019-03-10T01:12:07.052Z,59.26
2019-03-10T01:14:35.710Z,59.32
2019-03-10T01:17:04.470Z,59.14
2019-03-10T01:19:33.399Z,58.86
2019-03-10T01:22:02.530Z,59.10
2019-03-10T01:24:31.138Z,59.22
2019-03-10T01:26:59.779Z,58.56
2019-03-10T01:29:28.334Z,58.89
2019-03-10T01:32:14.695Z,58.88
2019-03-10T01:34:49.109Z,58.19
2019-03-10T01:37:17.669Z,58.34
2019-03-10T01:39:46.265Z,58.60
2019-03-10T01:42:14.819Z,58.89
2019-03-10T01:44:43.372Z,59.11
2019-03-10T01:47:12.045Z,59.26
2019-03-10T01:49:40.607Z,58.88
2019-03-10T01:52:09.094Z,58.68
2019-03-10T01:54:37.686Z,58.92
2019-03-10T01:57:06.309Z,59.09
2019-03-10T01:59:34.860Z,58.74
2019-03-10T02:02:03.467Z,58.71
2019-03-10T02:04:32.026Z,58.91
2019-03-10T02:07:00.651Z,58.99
2019-03-10T02:09:29.261Z,59.33
2019-03-10T02:11:57.814Z,58.90
2019-03-10T02:14:26.371Z,58.81
2019-03-10T02:16:55.040Z,58.34
2019-03-10T02:19:23.590Z,58.14
2019-03-10T02:21:52.173Z,57.73
2019-03-10T02:24:24.119Z,57.39
2019-03-10T02:26:51.058Z,56.98
2019-03-10T02:29:19.542Z,56.79
2019-03-10T02:31:48.246Z,56.73
2019-03-10T02:34:16.803Z,56.72
2019-03-10T02:36:45.375Z,56.59
2019-03-10T02:39:14.070Z,56.47
2019-03-10T02:41:42.662Z,56.45
2019-03-10T02:44:11.215Z,56.18
2019-03-10T02:46:39.763Z,56.10
2019-03-10T02:49:08.328Z,55.86
2019-03-10T02:51:36.961Z,55.88
2019-03-10T02:54:05.639Z,55.73
2019-03-10T02:56:34.122Z,55.08
2019-03-10T02:59:02.680Z,55.15
2019-03-10T03:01:31.353Z,55.24
2019-03-10T03:03:59.905Z,55.30
2019-03-10T03:06:28.535Z,55.63
2019-03-10T03:08:57.194Z,57.17
2019-03-10T03:11:25.703Z,58.35
2019-03-10T03:13:54.329Z,59.45
2019-03-10T03:16:22.994Z,60.42
2019-03-10T03:18:51.545Z,61.16
2019-03-10T03:21:20.041Z,61.76
2019-03-10T03:23:48.691Z,62.27
2019-03-10T03:26:17.466Z,62.79
2019-03-10T03:28:45.967Z,62.88
2019-03-10T03:31:14.588Z,61.90
2019-03-10T03:33:43.157Z,62.17
2019-03-10T03:36:17.402Z,62.19
2019-03-10T03:38:49.311Z,61.83
2019-03-10T03:41:23.420Z,61.16
2019-03-10T03:43:52.048Z,61.69
2019-03-10T03:46:20.651Z,61.63
2019-03-10T03:48:49.215Z,61.12
2019-03-10T03:51:17.831Z,60.92
2019-03-10T03:53:46.434Z,60.78
2019-03-10T03:56:14.929Z,61.17
2019-03-10T03:58:43.476Z,61.09
2019-03-10T04:01:22.711Z,61.10
2019-03-10T04:03:51.273Z,61.02
2019-03-10T04:06:20.096Z,60.92
2019-03-10T04:08:48.685Z,60.06
2019-03-10T04:11:17.309Z,60.07
2019-03-10T04:13:45.868Z,59.26
2019-03-10T04:16:14.434Z,59.10
2019-03-10T04:18:43.000Z,58.18
2019-03-10T04:21:11.599Z,56.86
2019-03-10T04:23:40.151Z,56.57
2019-03-10T04:26:08.777Z,56.33
2019-03-10T04:28:37.329Z,56.14
2019-03-10T04:31:05.819Z,57.28
2019-03-10T04:33:34.379Z,56.33
2019-03-10T04:36:03.009Z,56.19
2019-03-10T04:38:31.684Z,55.48
2019-03-10T04:41:00.199Z,56.93
2019-03-10T04:43:28.831Z,57.08
2019-03-10T04:45:57.489Z,57.70
2019-03-10T04:48:26.046Z,57.99
2019-03-10T04:50:54.549Z,58.14
2019-03-10T04:53:23.094Z,58.50
2019-03-10T04:55:56.064Z,58.65
2019-03-10T04:58:25.831Z,58.91
2019-03-10T05:00:56.026Z,59.49
2019-03-10T05:03:24.653Z,57.22
2019-03-10T05:05:53.265Z,56.44
2019-03-10T05:08:21.894Z,54.84
2019-03-10T05:10:50.463Z,54.12
2019-03-10T05:13:19.052Z,53.05
2019-03-10T05:15:47.680Z,53.46
2019-03-10T05:18:16.363Z,53.47
2019-03-10T05:20:44.945Z,53.52
2019-03-10T05:23:28.694Z,54.15
2019-03-10T05:25:57.562Z,55.01
2019-03-10T05:28:26.186Z,55.46
2019-03-10T05:30:54.755Z,55.68
2019-03-10T05:33:23.354Z,55.15
2019-03-10T05:35:51.984Z,55.03
2019-03-10T05:38:20.545Z,55.00
2019-03-10T05:40:49.155Z,55.24
2019-03-10T05:43:17.715Z,55.23
2019-03-10T05:45:46.210Z,54.65
2019-03-10T05:48:14.817Z,54.03
2019-03-10T05:50:43.481Z,53.79
2019-03-10T05:53:12.109Z,53.88
2019-03-10T05:55:40.776Z,53.65
2019-03-10T05:58:09.352Z,53.68
2019-03-10T06:00:42.743Z,51.71
2019-03-10T06:03:08.308Z,49.56
2019-03-10T06:05:36.808Z,47.66
2019-03-10T06:08:05.520Z,45.58
2019-03-10T06:10:34.192Z,43.62
2019-03-10T06:13:02.816Z,42.83
2019-03-10T06:15:31.365Z,42.27
2019-03-10T06:17:59.977Z,40.38
2019-03-10T06:20:28.536Z,39.58
2019-03-10T06:22:57.154Z,40.04
2019-03-10T06:25:25.832Z,39.30
2019-03-10T06:27:54.463Z,38.36
2019-03-10T06:30:22.962Z,37.34
2019-03-10T06:32:51.564Z,36.34
2019-03-10T06:35:20.191Z,36.45
2019-03-10T06:37:48.761Z,36.40
2019-03-10T06:40:17.374Z,36.38
2019-03-10T06:42:45.932Z,35.97
2019-03-10T06:45:14.584Z,36.85
2019-03-10T06:47:43.184Z,36.45
2019-03-10T06:50:12.572Z,36.29
2019-03-10T06:52:41.318Z,37.08
2019-03-10T06:55:09.982Z,36.77
2019-03-10T06:57:38.541Z,36.04
2019-03-10T07:00:10.090Z,36.17
2019-03-10T07:02:38.687Z,35.90
2019-03-10T07:05:09.518Z,36.35
2019-03-10T07:07:38.148Z,36.63
2019-03-10T07:10:12.457Z,36.82
2019-03-10T07:12:41.047Z,37.82
2019-03-10T07:15:11.676Z,36.41
2019-03-10T07:17:40.357Z,36.35
2019-03-10T07:20:14.899Z,36.28
2019-03-10T07:23:00.982Z,37.07
2019-03-10T07:25:29.576Z,38.13
2019-03-10T07:28:06.002Z,37.86
2019-03-10T07:30:39.065Z,37.06
2019-03-10T07:33:12.232Z,35.92
2019-03-10T07:35:58.998Z,35.92
2019-03-10T07:38:29.199Z,37.30
2019-03-10T07:40:59.397Z,35.53
2019-03-10T07:43:35.411Z,35.45
2019-03-10T07:46:11.635Z,33.16
2019-03-10T07:48:41.882Z,32.69
2019-03-10T07:51:21.124Z,31.98
2019-03-10T07:53:51.337Z,32.04
2019-03-10T07:56:27.586Z,31.71
2019-03-10T07:59:13.007Z,32.32
2019-03-10T08:01:48.928Z,33.22
2019-03-10T08:04:24.890Z,33.46
2019-03-10T08:06:55.162Z,33.11
2019-03-10T08:09:28.010Z,31.90
2019-03-10T08:11:58.210Z,29.25
2019-03-10T08:14:34.420Z,28.09
2019-03-10T08:17:04.742Z,28.02
2019-03-10T08:19:41.170Z,27.26
2019-03-10T08:22:14.508Z,27.19
2019-03-10T08:24:44.761Z,27.10
2019-03-10T08:27:20.499Z,27.10
2019-03-10T08:30:06.909Z,27.16
2019-03-10T08:32:46.267Z,26.31
2019-03-10T08:35:19.198Z,25.96
2019-03-10T08:37:49.337Z,25.53
2019-03-10T08:40:31.579Z,25.29
2019-03-10T08:43:05.022Z,26.50
2019-03-10T08:45:38.214Z,26.96
2019-03-10T08:48:17.380Z,26.40
2019-03-10T08:50:50.281Z,26.96
2019-03-10T08:53:32.187Z,27.12
2019-03-10T08:56:17.592Z,27.64
2019-03-10T08:58:59.525Z,27.09
2019-03-10T09:01:35.656Z,27.14
2019-03-10T09:04:05.929Z,27.45
2019-03-10T09:06:36.132Z,27.39
2019-03-10T09:09:08.441Z,27.82
2019-03-10T09:11:44.884Z,27.72
2019-03-10T09:14:15.052Z,27.46
2019-03-10T09:17:00.669Z,27.18
2019-03-10T09:19:30.981Z,27.87
2019-03-10T09:22:03.593Z,27.95
2019-03-10T09:24:45.932Z,28.35
2019-03-10T09:27:16.145Z,28.54
2019-03-10T09:29:52.416Z,27.78
2019-03-10T09:32:36.774Z,27.81
2019-03-10T09:35:24.049Z,27.99
2019-03-10T09:38:09.152Z,28.14
2019-03-10T09:40:39.422Z,28.12
2019-03-10T09:43:18.504Z,28.21
2019-03-10T09:45:48.832Z,27.99
2019-03-10T09:48:31.388Z,27.54
2019-03-10T09:51:10.415Z,27.46
2019-03-10T09:53:46.685Z,27.57
2019-03-10T09:56:19.628Z,28.36
2019-03-10T09:58:49.933Z,28.65
2019-03-10T10:01:20.066Z,28.03
2019-03-10T10:03:50.263Z,28.73
2019-03-10T10:06:36.979Z,28.16
2019-03-10T10:09:25.515Z,28.08
2019-03-10T10:12:12.697Z,28.26
2019-03-10T10:14:33.702Z,27.78
2019-03-10T10:17:04.024Z,28.09
2019-03-10T10:19:49.489Z,27.14
2019-03-10T10:22:25.564Z,26.74
2019-03-10T10:24:58.677Z,26.61
2019-03-10T10:27:31.822Z,26.64
2019-03-10T10:30:05.241Z,26.81
2019-03-10T10:32:47.671Z,26.64
2019-03-10T10:35:17.879Z,26.90
2019-03-10T10:38:06.315Z,26.45
2019-03-10T10:40:54.533Z,27.07
2019-03-10T10:43:36.487Z,27.12
2019-03-10T10:46:23.252Z,27.27
2019-03-10T10:48:53.572Z,27.21
2019-03-10T10:51:27.034Z,26.41
2019-03-10T10:54:12.680Z,25.72
2019-03-10T10:56:42.941Z,25.84
2019-03-10T10:59:25.246Z,25.51
2019-03-10T11:01:55.504Z,25.59
2019-03-10T11:04:37.835Z,25.66
2019-03-10T11:07:08.046Z,26.28
2019-03-10T11:09:56.651Z,26.11
2019-03-10T11:12:29.903Z,25.93
2019-03-10T11:15:09.194Z,25.60
2019-03-10T11:17:42.124Z,25.45
2019-03-10T11:20:21.815Z,25.58
2019-03-10T11:22:52.005Z,25.41
2019-03-10T11:25:25.291Z,25.37
2019-03-10T11:27:55.538Z,25.16
2019-03-10T11:30:44.067Z,25.68
2019-03-10T11:33:27.666Z,25.15
2019-03-10T11:36:14.432Z,25.00
2019-03-10T11:38:44.680Z,24.51
2019-03-10T11:41:33.814Z,24.38
2019-03-10T11:44:01.870Z,24.23
2019-03-10T11:46:35.112Z,23.96
2019-03-10T11:49:17.406Z,23.89
2019-03-10T11:51:50.375Z,24.00
2019-03-10T11:54:29.612Z,23.91
2019-03-10T11:57:16.072Z,24.14
2019-03-10T11:59:46.318Z,24.07
2019-03-10T12:02:19.560Z,23.65
2019-03-10T12:04:56.559Z,23.92
2019-03-10T12:07:41.463Z,24.13
2019-03-10T12:10:12.935Z,24.31
2019-03-10T12:12:41.622Z,24.39
2019-03-10T12:15:12.839Z,24.40
2019-03-10T12:17:41.327Z,24.03
2019-03-10T12:20:12.305Z,23.62
2019-03-10T12:22:40.939Z,23.39
2019-03-10T12:25:13.944Z,22.80
2019-03-10T12:27:42.527Z,23.48
2019-03-10T12:30:13.254Z,23.51
2019-03-10T12:32:41.836Z,23.53
2019-03-10T12:35:10.511Z,23.35
2019-03-10T12:37:39.137Z,23.24
2019-03-10T12:40:12.338Z,22.94
2019-03-10T12:42:41.020Z,22.92
2019-03-10T12:45:11.342Z,22.63
2019-03-10T12:47:49.281Z,22.53
2019-03-10T12:50:18.851Z,22.68
2019-03-10T12:52:47.737Z,22.64
2019-03-10T12:55:16.373Z,22.42
2019-03-10T12:57:45.001Z,22.38
2019-03-10T13:00:15.756Z,22.25
2019-03-10T13:02:44.386Z,22.48
2019-03-10T13:05:13.022Z,22.58
2019-03-10T13:07:41.695Z,22.50
2019-03-10T13:10:12.601Z,22.24
2019-03-10T13:12:40.679Z,22.34
2019-03-10T13:15:13.222Z,22.73
2019-03-10T13:17:41.851Z,22.24
2019-03-10T13:20:11.876Z,21.69
2019-03-10T13:22:40.615Z,21.88
2019-03-10T13:25:12.576Z,21.70
2019-03-10T13:27:41.344Z,21.33
2019-03-10T13:30:12.486Z,21.45
2019-03-10T13:32:41.171Z,21.29
2019-03-10T13:35:10.335Z,21.28
2019-03-10T13:37:38.899Z,21.44
2019-03-10T13:40:10.304Z,21.24
2019-03-10T13:42:38.913Z,21.30
2019-03-10T13:45:10.451Z,21.39
2019-03-10T13:47:45.009Z,21.58
2019-03-10T13:50:15.711Z,21.56
2019-03-10T13:52:44.436Z,21.60
2019-03-10T13:55:13.213Z,21.69
2019-03-10T13:57:41.775Z,21.79
2019-03-10T14:00:20.554Z,21.62
2019-03-10T14:02:49.181Z,21.44
2019-03-10T14:05:17.749Z,21.23
2019-03-10T14:07:46.429Z,21.05
2019-03-10T14:10:15.220Z,20.59
2019-03-10T14:12:43.849Z,20.62
2019-03-10T14:15:16.711Z,20.40
2019-03-10T14:17:45.272Z,20.26
2019-03-10T14:20:15.332Z,20.42
2019-03-10T14:22:43.988Z,20.42
2019-03-10T14:25:14.321Z,20.52
2019-03-10T14:27:42.952Z,20.37
2019-03-10T14:30:16.806Z,20.67
2019-03-10T14:32:45.369Z,20.77
2019-03-10T14:35:14.703Z,21.26
2019-03-10T14:37:43.364Z,21.46
2019-03-10T14:40:19.859Z,21.67
2019-03-10T14:42:48.534Z,21.90
2019-03-10T14:45:18.267Z,22.30
2019-03-10T14:47:46.894Z,22.54
2019-03-10T14:50:17.586Z,22.40
2019-03-10T14:52:46.218Z,22.53
2019-03-10T14:55:20.595Z,22.61
2019-03-10T14:57:49.272Z,22.43
2019-03-10T15:00:21.042Z,22.33
2019-03-10T15:02:49.715Z,21.95
2019-03-10T15:05:18.403Z,21.59
2019-03-10T15:07:47.031Z,21.64
2019-03-10T15:10:16.069Z,21.64
2019-03-10T15:12:44.944Z,21.90
2019-03-10T15:15:22.202Z,21.66
2019-03-10T15:17:46.012Z,20.87
2019-03-10T15:20:16.095Z,18.93
2019-03-10T15:22:44.728Z,17.81
2019-03-10T15:25:15.712Z,17.19
2019-03-10T15:27:44.233Z,17.15
2019-03-10T15:30:15.771Z,17.57
2019-03-10T15:32:44.415Z,17.76
2019-03-10T15:35:13.727Z,18.05
2019-03-10T15:37:42.354Z,18.29
2019-03-10T15:40:16.808Z,18.50
2019-03-10T15:42:45.598Z,18.93
2019-03-10T15:45:16.266Z,19.14
2019-03-10T15:47:45.097Z,19.67
2019-03-10T15:50:19.114Z,20.04
2019-03-10T15:52:47.760Z,20.23
2019-03-10T15:55:16.315Z,20.54
2019-03-10T15:57:50.174Z,20.61
2019-03-10T16:00:17.639Z,20.81
2019-03-10T16:02:46.268Z,21.19
2019-03-10T16:05:14.936Z,21.25
2019-03-10T16:07:43.596Z,21.31
2019-03-10T16:10:14.335Z,21.45
2019-03-10T16:12:43.177Z,21.32
2019-03-10T16:15:20.284Z,21.27
2019-03-10T16:17:48.925Z,20.99
2019-03-10T16:20:17.652Z,20.94
2019-03-10T16:22:46.339Z,20.73
2019-03-10T16:25:16.267Z,19.74
2019-03-10T16:27:44.894Z,19.27
2019-03-10T16:30:27.327Z,18.91
2019-03-10T16:32:55.985Z,19.02
2019-03-10T16:35:24.720Z,19.05
2019-03-10T16:37:53.391Z,18.98
2019-03-10T16:40:22.536Z,18.94
2019-03-10T16:42:51.108Z,19.24
2019-03-10T16:45:23.564Z,18.76
2019-03-10T16:47:52.398Z,19.15
2019-03-10T16:50:23.184Z,18.86
2019-03-10T16:52:51.857Z,19.10
2019-03-10T16:55:20.590Z,18.90
2019-03-10T16:57:49.317Z,19.97
2019-03-10T17:00:20.149Z,20.74
2019-03-10T17:02:49.378Z,21.53
2019-03-10T17:05:21.752Z,22.06
2019-03-10T17:07:50.623Z,22.70
2019-03-10T17:10:23.750Z,22.84
2019-03-10T17:12:52.381Z,23.60
2019-03-10T17:15:24.735Z,24.04
2019-03-10T17:17:53.469Z,24.61
2019-03-10T17:20:22.301Z,25.28
2019-03-10T17:22:50.943Z,25.59
2019-03-10T17:25:19.526Z,25.52
2019-03-10T17:27:48.215Z,26.30
2019-03-10T17:30:19.762Z,26.52
2019-03-10T17:32:48.388Z,26.82
2019-03-10T17:35:19.071Z,26.93
2019-03-10T17:37:48.679Z,26.95
2019-03-10T17:40:18.814Z,26.81
2019-03-10T17:42:47.484Z,26.65
2019-03-10T17:45:20.459Z,26.64
2019-03-10T17:47:49.027Z,26.66
2019-03-10T17:50:18.898Z,26.75
2019-03-10T17:52:48.330Z,26.95
2019-03-10T17:55:19.105Z,27.06
2019-03-10T17:57:47.980Z,27.20
2019-03-10T18:00:22.027Z,27.26
2019-03-10T18:02:50.586Z,27.31
2019-03-10T18:05:19.259Z,27.32
2019-03-10T18:07:48.094Z,27.39
2019-03-10T18:10:18.505Z,27.53
2019-03-10T18:12:47.186Z,27.71
2019-03-10T18:15:17.890Z,27.77
2019-03-10T18:17:46.527Z,27.65
2019-03-10T18:20:16.891Z,27.78
2019-03-10T18:22:48.390Z,27.76
2019-03-10T18:25:17.234Z,27.83
2019-03-10T18:27:45.900Z,27.64
2019-03-10T18:30:27.515Z,27.57
2019-03-10T18:32:56.171Z,27.46
2019-03-10T18:35:24.856Z,27.23
2019-03-10T18:37:53.487Z,26.88
2019-03-10T18:40:26.142Z,26.76
2019-03-10T18:42:54.903Z,26.73
2019-03-10T18:45:23.537Z,26.72
2019-03-10T18:47:52.178Z,26.67
2019-03-10T18:50:24.424Z,26.55
2019-03-10T18:52:53.130Z,26.47
2019-03-10T18:55:22.086Z,26.37
2019-03-10T18:57:50.771Z,26.42
2019-03-10T19:00:21.945Z,26.47
2019-03-10T19:02:50.703Z,26.54
2019-03-10T19:05:19.363Z,26.64
2019-03-10T19:07:48.001Z,26.70
2019-03-10T19:10:16.640Z,26.79
2019-03-10T19:12:45.422Z,26.65
2019-03-10T19:15:21.506Z,26.66
2019-03-10T19:17:50.208Z,26.76
2019-03-10T19:20:18.910Z,26.91
2019-03-10T19:22:47.548Z,27.11
2019-03-10T19:25:17.123Z,27.12
2019-03-10T19:27:45.772Z,27.36
2019-03-10T19:30:22.287Z,27.46
2019-03-10T19:32:50.933Z,27.44
2019-03-10T19:35:19.654Z,27.70
2019-03-10T19:37:48.454Z,27.76
2019-03-10T19:40:24.711Z,28.09
2019-03-10T19:42:53.395Z,28.60
2019-03-10T19:45:25.188Z,28.44
2019-03-10T19:47:53.775Z,28.68
2019-03-10T19:50:27.959Z,29.01
2019-03-10T19:52:56.654Z,29.42
2019-03-10T19:55:25.282Z,29.30
2019-03-10T19:57:53.916Z,29.18
2019-03-10T20:00:22.881Z,28.90
2019-03-10T20:02:51.429Z,28.52
2019-03-10T20:05:20.069Z,28.52
2019-03-10T20:07:48.732Z,28.37
2019-03-10T20:10:24.130Z,28.26
2019-03-10T20:12:52.912Z,28.16
2019-03-10T20:15:22.781Z,28.26
2019-03-10T20:17:51.414Z,28.25
2019-03-10T20:20:25.714Z,28.41
2019-03-10T20:22:54.240Z,28.52
2019-03-10T20:25:22.875Z,28.73
2019-03-10T20:27:51.534Z,28.91
2019-03-10T20:30:29.677Z,29.09
2019-03-10T20:32:58.317Z,28.96
2019-03-10T20:35:26.881Z,28.96
2019-03-10T20:37:55.558Z,28.75
2019-03-10T20:40:25.716Z,28.76
2019-03-10T20:42:54.347Z,29.00
2019-03-10T20:45:24.494Z,29.02
2019-03-10T20:47:56.053Z,29.10
2019-03-10T20:50:23.673Z,28.99
2019-03-10T20:52:53.052Z,29.19
2019-03-10T20:55:21.629Z,29.28
2019-03-10T20:57:50.190Z,28.78
2019-03-10T21:00:23.506Z,28.95
2019-03-10T21:02:52.229Z,29.06
2019-03-10T21:05:20.798Z,28.96
2019-03-10T21:07:49.416Z,29.06
2019-03-10T21:10:20.382Z,29.10
2019-03-10T21:12:48.999Z,29.35
2019-03-10T21:15:18.866Z,29.54
2019-03-10T21:17:47.432Z,29.45
2019-03-10T21:20:17.566Z,29.27
2019-03-10T21:22:46.346Z,29.42
2019-03-10T21:25:23.223Z,29.68
2019-03-10T21:27:51.850Z,29.66
2019-03-10T21:30:25.986Z,30.01
2019-03-10T21:32:54.614Z,30.11
2019-03-10T21:35:23.288Z,30.24
2019-03-10T21:37:51.800Z,30.27
2019-03-10T21:40:26.241Z,30.70
2019-03-10T21:42:54.904Z,30.99
2019-03-10T21:45:23.539Z,31.12
2019-03-10T21:47:52.168Z,31.25
2019-03-10T21:50:27.112Z,31.62
2019-03-10T21:52:55.744Z,31.56
2019-03-10T21:55:24.380Z,31.86
2019-03-10T21:57:53.049Z,32.05
2019-03-10T22:00:21.611Z,32.32
2019-03-10T22:02:50.200Z,32.13
2019-03-10T22:05:18.973Z,32.38
2019-03-10T22:07:47.616Z,32.42
2019-03-10T22:10:26.101Z,32.52
2019-03-10T22:12:48.266Z,32.28
2019-03-10T22:15:21.405Z,32.58
2019-03-10T22:17:50.025Z,32.85
2019-03-10T22:20:20.559Z,32.83
2019-03-10T22:22:50.182Z,33.09
2019-03-10T22:25:19.061Z,33.35
2019-03-10T22:27:47.730Z,33.52
2019-03-10T22:30:19.350Z,33.65
2019-03-10T22:32:48.056Z,33.70
2019-03-10T22:35:16.741Z,34.12
2019-03-10T22:37:45.500Z,34.16
2019-03-10T22:40:15.336Z,34.25
2019-03-10T22:42:44.008Z,34.39
2019-03-10T22:45:16.610Z,34.50
2019-03-10T22:47:45.102Z,34.47
2019-03-10T22:50:14.584Z,34.58
2019-03-10T22:52:43.311Z,34.64
2019-03-10T22:55:14.971Z,35.01
2019-03-10T22:57:43.587Z,35.39
2019-03-10T23:00:27.785Z,35.36
2019-03-10T23:02:56.527Z,35.45
2019-03-10T23:05:25.019Z,35.60
2019-03-10T23:07:53.507Z,35.84
2019-03-10T23:10:22.176Z,35.97
2019-03-10T23:12:50.672Z,36.16
2019-03-10T23:15:19.335Z,36.25
2019-03-10T23:17:47.981Z,36.68
2019-03-10T23:20:17.118Z,36.60
2019-03-10T23:22:45.674Z,37.14
2019-03-10T23:25:14.461Z,37.25
2019-03-10T23:27:43.274Z,37.20
2019-03-10T23:30:17.873Z,37.18
2019-03-10T23:32:46.554Z,37.23
2019-03-10T23:35:15.526Z,37.48
2019-03-10T23:37:44.151Z,37.50
2019-03-10T23:40:15.100Z,37.33
2019-03-10T23:42:43.723Z,37.51
2019-03-10T23:45:17.092Z,37.51
2019-03-10T23:47:45.770Z,37.67
2019-03-10T23:50:16.016Z,37.95
2019-03-10T23:52:44.648Z,38.39
2019-03-10T23:55:14.029Z,38.70
2019-03-10T23:57:42.578Z,39.40
